sensor_id;sensor_type;location;lat;lon;timestamp;P1;durP1;ratioP1;P2;durP2;ratioP2
355;SDS011;62514;48.112;11.566;2024-01-10T00:02:01;58.53;;;28.80;;
355;SDS011;62514;48.112;11.566;2024-01-10T00:04:26;56.80;;;28.00;;
355;SDS011;62514;48.112;11.566;2024-01-10T00:06:53;45.50;;;22.17;;
355;SDS011;62514;48.112;11.566;2024-01-10T00:09:19;60.50;;;29.33;;
355;SDS011;62514;48.112;11.566;2024-01-10T00:11:45;60.30;;;29.30;;
355;SDS011;62514;48.112;11.566;2024-01-10T00:14:11;62.90;;;30.87;;
355;SDS011;62514;48.112;11.566;2024-01-10T00:16:37;59.80;;;29.40;;
355;SDS011;62514;48.112;11.566;2024-01-10T00:19:03;62.77;;;30.33;;
355;SDS011;62514;48.112;11.566;2024-01-10T00:21:29;60.13;;;28.60;;
355;SDS011;62514;48.112;11.566;2024-01-10T00:23:56;65.27;;;31.47;;
355;SDS011;62514;48.112;11.566;2024-01-10T00:26:22;61.03;;;29.37;;
355;SDS011;62514;48.112;11.566;2024-01-10T00:28:48;59.10;;;28.67;;
355;SDS011;62514;48.112;11.566;2024-01-10T00:31:14;58.67;;;28.53;;
355;SDS011;62514;48.112;11.566;2024-01-10T00:33:40;58.17;;;28.23;;
355;SDS011;62514;48.112;11.566;2024-01-10T00:36:06;61.37;;;29.90;;
355;SDS011;62514;48.112;11.566;2024-01-10T00:38:32;58.80;;;28.43;;
355;SDS011;62514;48.112;11.566;2024-01-10T00:40:58;58.80;;;28.70;;
355;SDS011;62514;48.112;11.566;2024-01-10T00:43:24;60.43;;;28.63;;
355;SDS011;62514;48.112;11.566;2024-01-10T00:45:50;59.33;;;28.73;;
355;SDS011;62514;48.112;11.566;2024-01-10T00:48:16;59.43;;;28.80;;
355;SDS011;62514;48.112;11.566;2024-01-10T00:50:43;60.03;;;28.40;;
355;SDS011;62514;48.112;11.566;2024-01-10T00:53:12;60.30;;;29.43;;
355;SDS011;62514;48.112;11.566;2024-01-10T00:55:39;59.83;;;29.13;;
355;SDS011;62514;48.112;11.566;2024-01-10T00:58:05;65.00;;;32.00;;
355;SDS011;62514;48.112;11.566;2024-01-10T01:00:32;57.93;;;28.23;;
355;SDS011;62514;48.112;11.566;2024-01-10T01:02:58;57.10;;;26.93;;
355;SDS011;62514;48.112;11.566;2024-01-10T01:05:25;55.60;;;26.90;;
355;SDS011;62514;48.112;11.566;2024-01-10T01:07:51;60.57;;;28.93;;
355;SDS011;62514;48.112;11.566;2024-01-10T01:10:17;62.83;;;30.80;;
355;SDS011;62514;48.112;11.566;2024-01-10T01:12:43;59.07;;;28.77;;
355;SDS011;62514;48.112;11.566;2024-01-10T01:15:09;63.57;;;30.67;;
355;SDS011;62514;48.112;11.566;2024-01-10T01:17:35;68.80;;;32.60;;
355;SDS011;62514;48.112;11.566;2024-01-10T01:20:02;67.00;;;32.30;;
355;SDS011;62514;48.112;11.566;2024-01-10T01:22:30;45.70;;;21.77;;
355;SDS011;62514;48.112;11.566;2024-01-10T01:24:56;63.77;;;30.20;;
355;SDS011;62514;48.112;11.566;2024-01-10T01:27:22;58.67;;;27.90;;
355;SDS011;62514;48.112;11.566;2024-01-10T01:29:49;70.57;;;34.20;;
355;SDS011;62514;48.112;11.566;2024-01-10T01:32:15;65.03;;;31.33;;
355;SDS011;62514;48.112;11.566;2024-01-10T01:34:41;61.57;;;29.67;;
355;SDS011;62514;48.112;11.566;2024-01-10T01:37:07;83.00;;;41.70;;
355;SDS011;62514;48.112;11.566;2024-01-10T01:39:33;48.53;;;22.90;;
355;SDS011;62514;48.112;11.566;2024-01-10T01:41:59;64.47;;;30.03;;
355;SDS011;62514;48.112;11.566;2024-01-10T01:44:25;65.17;;;32.10;;
355;SDS011;62514;48.112;11.566;2024-01-10T01:46:51;64.97;;;30.20;;
355;SDS011;62514;48.112;11.566;2024-01-10T01:49:17;70.33;;;33.73;;
355;SDS011;62514;48.112;11.566;2024-01-10T01:51:43;63.60;;;29.80;;
355;SDS011;62514;48.112;11.566;2024-01-10T01:54:09;69.43;;;32.60;;
355;SDS011;62514;48.112;11.566;2024-01-10T01:56:36;66.23;;;30.87;;
355;SDS011;62514;48.112;11.566;2024-01-10T01:59:04;67.83;;;32.13;;
355;SDS011;62514;48.112;11.566;2024-01-10T02:01:30;63.40;;;30.00;;
355;SDS011;62514;48.112;11.566;2024-01-10T02:03:57;62.93;;;29.80;;
355;SDS011;62514;48.112;11.566;2024-01-10T02:06:23;63.40;;;30.73;;
355;SDS011;62514;48.112;11.566;2024-01-10T02:08:49;63.70;;;29.77;;
355;SDS011;62514;48.112;11.566;2024-01-10T02:11:15;76.77;;;36.77;;
355;SDS011;62514;48.112;11.566;2024-01-10T02:13:41;61.73;;;29.00;;
355;SDS011;62514;48.112;11.566;2024-01-10T02:16:07;70.17;;;32.67;;
355;SDS011;62514;48.112;11.566;2024-01-10T02:18:34;62.17;;;29.33;;
355;SDS011;62514;48.112;11.566;2024-01-10T02:21:00;64.10;;;29.67;;
355;SDS011;62514;48.112;11.566;2024-01-10T02:23:26;61.13;;;28.07;;
355;SDS011;62514;48.112;11.566;2024-01-10T02:25:52;61.37;;;28.77;;
355;SDS011;62514;48.112;11.566;2024-01-10T02:28:18;67.37;;;32.10;;
355;SDS011;62514;48.112;11.566;2024-01-10T02:30:44;65.87;;;31.43;;
355;SDS011;62514;48.112;11.566;2024-01-10T02:33:12;58.27;;;28.30;;
355;SDS011;62514;48.112;11.566;2024-01-10T02:35:38;60.43;;;29.37;;
355;SDS011;62514;48.112;11.566;2024-01-10T02:38:04;61.57;;;30.50;;
355;SDS011;62514;48.112;11.566;2024-01-10T02:40:31;63.33;;;30.13;;
355;SDS011;62514;48.112;11.566;2024-01-10T02:42:57;64.20;;;31.53;;
355;SDS011;62514;48.112;11.566;2024-01-10T02:45:23;75.90;;;37.83;;
355;SDS011;62514;48.112;11.566;2024-01-10T02:47:48;62.13;;;29.40;;
355;SDS011;62514;48.112;11.566;2024-01-10T02:50:14;67.23;;;31.70;;
355;SDS011;62514;48.112;11.566;2024-01-10T02:52:41;65.50;;;31.20;;
355;SDS011;62514;48.112;11.566;2024-01-10T02:55:07;69.80;;;33.77;;
355;SDS011;62514;48.112;11.566;2024-01-10T02:57:33;60.67;;;28.87;;
355;SDS011;62514;48.112;11.566;2024-01-10T02:59:59;60.93;;;28.50;;
355;SDS011;62514;48.112;11.566;2024-01-10T03:02:25;125.07;;;64.73;;
355;SDS011;62514;48.112;11.566;2024-01-10T03:04:51;60.57;;;28.80;;
355;SDS011;62514;48.112;11.566;2024-01-10T03:07:17;62.70;;;30.17;;
355;SDS011;62514;48.112;11.566;2024-01-10T03:09:43;65.23;;;31.00;;
355;SDS011;62514;48.112;11.566;2024-01-10T03:12:09;64.80;;;30.70;;
355;SDS011;62514;48.112;11.566;2024-01-10T03:14:37;61.23;;;29.67;;
355;SDS011;62514;48.112;11.566;2024-01-10T03:17:03;75.83;;;36.07;;
355;SDS011;62514;48.112;11.566;2024-01-10T03:19:29;63.77;;;30.57;;
355;SDS011;62514;48.112;11.566;2024-01-10T03:21:55;65.13;;;30.40;;
355;SDS011;62514;48.112;11.566;2024-01-10T03:24:21;65.57;;;31.53;;
355;SDS011;62514;48.112;11.566;2024-01-10T03:26:49;67.43;;;32.20;;
355;SDS011;62514;48.112;11.566;2024-01-10T03:29:15;60.90;;;29.20;;
355;SDS011;62514;48.112;11.566;2024-01-10T03:31:41;61.60;;;29.00;;
355;SDS011;62514;48.112;11.566;2024-01-10T03:34:07;62.90;;;28.90;;
355;SDS011;62514;48.112;11.566;2024-01-10T03:36:33;65.80;;;30.77;;
355;SDS011;62514;48.112;11.566;2024-01-10T03:38:59;65.83;;;31.37;;
355;SDS011;62514;48.112;11.566;2024-01-10T03:41:25;70.13;;;32.93;;
355;SDS011;62514;48.112;11.566;2024-01-10T03:43:51;69.60;;;32.43;;
355;SDS011;62514;48.112;11.566;2024-01-10T03:46:17;64.17;;;29.13;;
355;SDS011;62514;48.112;11.566;2024-01-10T03:48:43;67.20;;;30.97;;
355;SDS011;62514;48.112;11.566;2024-01-10T03:51:17;68.40;;;32.33;;
355;SDS011;62514;48.112;11.566;2024-01-10T03:53:44;66.20;;;30.60;;
355;SDS011;62514;48.112;11.566;2024-01-10T03:56:11;70.77;;;34.13;;
355;SDS011;62514;48.112;11.566;2024-01-10T03:58:37;65.50;;;30.57;;
355;SDS011;62514;48.112;11.566;2024-01-10T04:01:07;76.43;;;33.97;;
355;SDS011;62514;48.112;11.566;2024-01-10T04:03:34;64.60;;;30.00;;
355;SDS011;62514;48.112;11.566;2024-01-10T04:06:01;64.57;;;31.37;;
355;SDS011;62514;48.112;11.566;2024-01-10T04:08:27;70.27;;;32.33;;
355;SDS011;62514;48.112;11.566;2024-01-10T04:10:54;62.50;;;29.73;;
355;SDS011;62514;48.112;11.566;2024-01-10T04:13:20;62.93;;;29.93;;
355;SDS011;62514;48.112;11.566;2024-01-10T04:15:46;61.77;;;28.57;;
355;SDS011;62514;48.112;11.566;2024-01-10T04:18:12;63.87;;;29.47;;
355;SDS011;62514;48.112;11.566;2024-01-10T04:20:38;63.70;;;30.00;;
355;SDS011;62514;48.112;11.566;2024-01-10T04:23:04;61.13;;;28.97;;
355;SDS011;62514;48.112;11.566;2024-01-10T04:25:30;66.13;;;31.53;;
355;SDS011;62514;48.112;11.566;2024-01-10T04:27:56;61.27;;;29.20;;
355;SDS011;62514;48.112;11.566;2024-01-10T04:30:22;70.20;;;33.13;;
355;SDS011;62514;48.112;11.566;2024-01-10T04:32:48;62.50;;;29.87;;
355;SDS011;62514;48.112;11.566;2024-01-10T04:35:14;62.50;;;30.23;;
355;SDS011;62514;48.112;11.566;2024-01-10T04:37:40;68.20;;;31.40;;
355;SDS011;62514;48.112;11.566;2024-01-10T04:40:06;64.07;;;30.00;;
355;SDS011;62514;48.112;11.566;2024-01-10T04:42:33;69.70;;;33.07;;
355;SDS011;62514;48.112;11.566;2024-01-10T04:44:59;68.37;;;31.37;;
355;SDS011;62514;48.112;11.566;2024-01-10T04:47:24;64.43;;;30.10;;
355;SDS011;62514;48.112;11.566;2024-01-10T04:49:50;64.03;;;29.77;;
355;SDS011;62514;48.112;11.566;2024-01-10T04:52:16;65.50;;;31.07;;
355;SDS011;62514;48.112;11.566;2024-01-10T04:54:42;63.77;;;29.90;;
355;SDS011;62514;48.112;11.566;2024-01-10T04:57:08;86.10;;;42.63;;
355;SDS011;62514;48.112;11.566;2024-01-10T04:59:34;67.13;;;31.10;;
355;SDS011;62514;48.112;11.566;2024-01-10T05:02:00;67.50;;;31.43;;
355;SDS011;62514;48.112;11.566;2024-01-10T05:04:26;69.83;;;32.17;;
355;SDS011;62514;48.112;11.566;2024-01-10T05:06:52;70.20;;;33.17;;
355;SDS011;62514;48.112;11.566;2024-01-10T05:09:17;66.97;;;31.40;;
355;SDS011;62514;48.112;11.566;2024-01-10T05:11:43;66.93;;;30.37;;
355;SDS011;62514;48.112;11.566;2024-01-10T05:14:13;65.07;;;30.20;;
355;SDS011;62514;48.112;11.566;2024-01-10T05:16:39;71.03;;;32.87;;
355;SDS011;62514;48.112;11.566;2024-01-10T05:19:05;67.37;;;31.33;;
355;SDS011;62514;48.112;11.566;2024-01-10T05:21:32;66.50;;;31.17;;
355;SDS011;62514;48.112;11.566;2024-01-10T05:23:58;66.70;;;31.70;;
355;SDS011;62514;48.112;11.566;2024-01-10T05:26:24;70.50;;;33.20;;
355;SDS011;62514;48.112;11.566;2024-01-10T05:28:50;68.60;;;31.33;;
355;SDS011;62514;48.112;11.566;2024-01-10T05:31:16;74.50;;;34.93;;
355;SDS011;62514;48.112;11.566;2024-01-10T05:33:42;70.60;;;32.47;;
355;SDS011;62514;48.112;11.566;2024-01-10T05:36:08;68.17;;;32.10;;
355;SDS011;62514;48.112;11.566;2024-01-10T05:38:38;69.30;;;32.00;;
355;SDS011;62514;48.112;11.566;2024-01-10T05:41:05;65.90;;;30.20;;
355;SDS011;62514;48.112;11.566;2024-01-10T05:43:31;52.67;;;23.77;;
355;SDS011;62514;48.112;11.566;2024-01-10T05:45:57;64.63;;;30.30;;
355;SDS011;62514;48.112;11.566;2024-01-10T05:48:24;66.70;;;30.60;;
355;SDS011;62514;48.112;11.566;2024-01-10T05:50:50;66.10;;;30.90;;
355;SDS011;62514;48.112;11.566;2024-01-10T05:53:16;66.00;;;31.40;;
355;SDS011;62514;48.112;11.566;2024-01-10T05:55:43;68.13;;;32.73;;
355;SDS011;62514;48.112;11.566;2024-01-10T05:58:09;66.50;;;31.60;;
355;SDS011;62514;48.112;11.566;2024-01-10T06:00:36;64.83;;;30.43;;
355;SDS011;62514;48.112;11.566;2024-01-10T06:03:02;65.70;;;30.70;;
355;SDS011;62514;48.112;11.566;2024-01-10T06:05:28;69.30;;;32.57;;
355;SDS011;62514;48.112;11.566;2024-01-10T06:07:54;64.57;;;30.47;;
355;SDS011;62514;48.112;11.566;2024-01-10T06:10:20;69.97;;;31.00;;
355;SDS011;62514;48.112;11.566;2024-01-10T06:12:46;63.30;;;30.37;;
355;SDS011;62514;48.112;11.566;2024-01-10T06:15:12;62.57;;;29.70;;
355;SDS011;62514;48.112;11.566;2024-01-10T06:17:38;63.80;;;30.50;;
355;SDS011;62514;48.112;11.566;2024-01-10T06:20:04;67.33;;;31.13;;
355;SDS011;62514;48.112;11.566;2024-01-10T06:22:32;66.33;;;31.40;;
355;SDS011;62514;48.112;11.566;2024-01-10T06:24:58;74.07;;;34.07;;
355;SDS011;62514;48.112;11.566;2024-01-10T06:27:24;62.07;;;29.60;;
355;SDS011;62514;48.112;11.566;2024-01-10T06:29:50;64.50;;;30.50;;
355;SDS011;62514;48.112;11.566;2024-01-10T06:32:16;64.07;;;30.50;;
355;SDS011;62514;48.112;11.566;2024-01-10T06:34:42;67.23;;;31.93;;
355;SDS011;62514;48.112;11.566;2024-01-10T06:37:08;70.47;;;33.70;;
355;SDS011;62514;48.112;11.566;2024-01-10T06:39:34;70.40;;;32.77;;
355;SDS011;62514;48.112;11.566;2024-01-10T06:42:00;63.93;;;30.10;;
355;SDS011;62514;48.112;11.566;2024-01-10T06:44:26;64.93;;;31.00;;
355;SDS011;62514;48.112;11.566;2024-01-10T06:46:54;63.50;;;29.77;;
355;SDS011;62514;48.112;11.566;2024-01-10T06:49:19;61.90;;;28.77;;
355;SDS011;62514;48.112;11.566;2024-01-10T06:51:46;67.90;;;32.30;;
355;SDS011;62514;48.112;11.566;2024-01-10T06:54:12;64.07;;;29.50;;
355;SDS011;62514;48.112;11.566;2024-01-10T06:56:39;67.87;;;32.10;;
355;SDS011;62514;48.112;11.566;2024-01-10T06:59:05;68.60;;;32.17;;
355;SDS011;62514;48.112;11.566;2024-01-10T07:01:31;63.70;;;30.17;;
355;SDS011;62514;48.112;11.566;2024-01-10T07:03:57;70.70;;;33.27;;
355;SDS011;62514;48.112;11.566;2024-01-10T07:06:22;63.07;;;29.30;;
355;SDS011;62514;48.112;11.566;2024-01-10T07:08:49;70.87;;;33.37;;
355;SDS011;62514;48.112;11.566;2024-01-10T07:11:16;73.30;;;35.53;;
355;SDS011;62514;48.112;11.566;2024-01-10T07:13:44;65.07;;;31.03;;
355;SDS011;62514;48.112;11.566;2024-01-10T07:16:11;64.77;;;30.20;;
355;SDS011;62514;48.112;11.566;2024-01-10T07:18:40;54.17;;;25.70;;
355;SDS011;62514;48.112;11.566;2024-01-10T07:21:06;67.53;;;32.00;;
355;SDS011;62514;48.112;11.566;2024-01-10T07:23:34;59.80;;;28.33;;
355;SDS011;62514;48.112;11.566;2024-01-10T07:26:01;72.03;;;34.07;;
355;SDS011;62514;48.112;11.566;2024-01-10T07:28:26;67.90;;;31.77;;
355;SDS011;62514;48.112;11.566;2024-01-10T07:30:52;59.67;;;28.83;;
355;SDS011;62514;48.112;11.566;2024-01-10T07:33:18;47.43;;;23.17;;
355;SDS011;62514;48.112;11.566;2024-01-10T07:35:45;63.77;;;30.33;;
355;SDS011;62514;48.112;11.566;2024-01-10T07:38:11;64.93;;;30.80;;
355;SDS011;62514;48.112;11.566;2024-01-10T07:40:38;65.03;;;30.63;;
355;SDS011;62514;48.112;11.566;2024-01-10T07:43:04;61.60;;;29.93;;
355;SDS011;62514;48.112;11.566;2024-01-10T07:45:30;61.37;;;29.40;;
355;SDS011;62514;48.112;11.566;2024-01-10T07:47:56;60.97;;;29.57;;
355;SDS011;62514;48.112;11.566;2024-01-10T07:50:22;66.30;;;31.80;;
355;SDS011;62514;48.112;11.566;2024-01-10T07:52:52;75.97;;;36.80;;
355;SDS011;62514;48.112;11.566;2024-01-10T07:55:18;63.90;;;30.00;;
355;SDS011;62514;48.112;11.566;2024-01-10T07:57:44;71.33;;;34.27;;
355;SDS011;62514;48.112;11.566;2024-01-10T08:00:10;64.10;;;30.10;;
355;SDS011;62514;48.112;11.566;2024-01-10T08:02:39;70.37;;;33.10;;
355;SDS011;62514;48.112;11.566;2024-01-10T08:05:05;64.03;;;30.97;;
355;SDS011;62514;48.112;11.566;2024-01-10T08:07:38;68.40;;;31.83;;
355;SDS011;62514;48.112;11.566;2024-01-10T08:10:07;71.50;;;33.87;;
355;SDS011;62514;48.112;11.566;2024-01-10T08:12:35;69.93;;;33.37;;
355;SDS011;62514;48.112;11.566;2024-01-10T08:15:01;70.60;;;32.93;;
355;SDS011;62514;48.112;11.566;2024-01-10T08:17:27;74.90;;;34.70;;
355;SDS011;62514;48.112;11.566;2024-01-10T08:19:53;71.30;;;33.60;;
355;SDS011;62514;48.112;11.566;2024-01-10T08:22:19;70.33;;;32.53;;
355;SDS011;62514;48.112;11.566;2024-01-10T08:24:46;71.80;;;34.60;;
355;SDS011;62514;48.112;11.566;2024-01-10T08:27:12;85.93;;;41.40;;
355;SDS011;62514;48.112;11.566;2024-01-10T08:29:38;54.33;;;25.80;;
355;SDS011;62514;48.112;11.566;2024-01-10T08:32:04;67.30;;;30.97;;
355;SDS011;62514;48.112;11.566;2024-01-10T08:34:31;68.53;;;31.83;;
355;SDS011;62514;48.112;11.566;2024-01-10T08:36:57;72.50;;;33.93;;
355;SDS011;62514;48.112;11.566;2024-01-10T08:39:23;71.60;;;33.47;;
355;SDS011;62514;48.112;11.566;2024-01-10T08:41:51;72.13;;;33.23;;
355;SDS011;62514;48.112;11.566;2024-01-10T08:44:18;80.30;;;37.33;;
355;SDS011;62514;48.112;11.566;2024-01-10T08:46:44;74.67;;;34.40;;
355;SDS011;62514;48.112;11.566;2024-01-10T08:49:10;72.07;;;32.20;;
355;SDS011;62514;48.112;11.566;2024-01-10T08:51:36;77.10;;;35.30;;
355;SDS011;62514;48.112;11.566;2024-01-10T08:54:02;76.30;;;34.83;;
355;SDS011;62514;48.112;11.566;2024-01-10T08:56:29;74.20;;;34.53;;
355;SDS011;62514;48.112;11.566;2024-01-10T08:58:54;80.57;;;36.47;;
355;SDS011;62514;48.112;11.566;2024-01-10T09:01:20;81.77;;;37.30;;
355;SDS011;62514;48.112;11.566;2024-01-10T09:03:48;74.57;;;33.77;;
355;SDS011;62514;48.112;11.566;2024-01-10T09:06:14;76.63;;;34.70;;
355;SDS011;62514;48.112;11.566;2024-01-10T09:08:40;78.90;;;36.40;;
355;SDS011;62514;48.112;11.566;2024-01-10T09:11:06;77.07;;;35.17;;
355;SDS011;62514;48.112;11.566;2024-01-10T09:13:31;78.00;;;33.33;;
355;SDS011;62514;48.112;11.566;2024-01-10T09:15:59;73.60;;;32.67;;
355;SDS011;62514;48.112;11.566;2024-01-10T09:18:25;75.70;;;33.73;;
355;SDS011;62514;48.112;11.566;2024-01-10T09:20:51;76.67;;;34.57;;
355;SDS011;62514;48.112;11.566;2024-01-10T09:23:16;70.83;;;32.43;;
355;SDS011;62514;48.112;11.566;2024-01-10T09:25:44;78.93;;;35.10;;
355;SDS011;62514;48.112;11.566;2024-01-10T09:28:10;76.03;;;33.80;;
355;SDS011;62514;48.112;11.566;2024-01-10T09:30:35;84.27;;;37.90;;
355;SDS011;62514;48.112;11.566;2024-01-10T09:33:01;74.03;;;33.20;;
355;SDS011;62514;48.112;11.566;2024-01-10T09:35:27;72.67;;;34.00;;
355;SDS011;62514;48.112;11.566;2024-01-10T09:37:53;86.47;;;39.40;;
355;SDS011;62514;48.112;11.566;2024-01-10T09:40:19;75.50;;;34.80;;
355;SDS011;62514;48.112;11.566;2024-01-10T09:42:52;75.60;;;34.10;;
355;SDS011;62514;48.112;11.566;2024-01-10T09:45:20;74.40;;;33.43;;
355;SDS011;62514;48.112;11.566;2024-01-10T09:47:48;73.87;;;32.87;;
355;SDS011;62514;48.112;11.566;2024-01-10T09:50:17;76.30;;;34.20;;
355;SDS011;62514;48.112;11.566;2024-01-10T09:52:53;75.40;;;33.57;;
355;SDS011;62514;48.112;11.566;2024-01-10T09:55:24;78.53;;;34.00;;
355;SDS011;62514;48.112;11.566;2024-01-10T09:57:56;76.27;;;34.47;;
355;SDS011;62514;48.112;11.566;2024-01-10T10:00:22;94.10;;;40.90;;
355;SDS011;62514;48.112;11.566;2024-01-10T10:02:50;79.57;;;36.17;;
355;SDS011;62514;48.112;11.566;2024-01-10T10:05:18;76.00;;;34.50;;
355;SDS011;62514;48.112;11.566;2024-01-10T10:07:54;79.57;;;35.17;;
355;SDS011;62514;48.112;11.566;2024-01-10T10:10:20;77.53;;;34.43;;
355;SDS011;62514;48.112;11.566;2024-01-10T10:12:52;104.00;;;36.30;;
355;SDS011;62514;48.112;11.566;2024-01-10T10:15:21;92.13;;;38.93;;
355;SDS011;62514;48.112;11.566;2024-01-10T10:17:49;79.63;;;34.60;;
355;SDS011;62514;48.112;11.566;2024-01-10T10:20:23;100.07;;;45.00;;
355;SDS011;62514;48.112;11.566;2024-01-10T10:22:57;83.13;;;35.43;;
355;SDS011;62514;48.112;11.566;2024-01-10T10:25:28;94.03;;;40.43;;
355;SDS011;62514;48.112;11.566;2024-01-10T10:27:57;93.03;;;40.23;;
355;SDS011;62514;48.112;11.566;2024-01-10T10:30:25;81.00;;;33.87;;
355;SDS011;62514;48.112;11.566;2024-01-10T10:32:52;89.80;;;36.37;;
355;SDS011;62514;48.112;11.566;2024-01-10T10:35:18;97.93;;;39.33;;
355;SDS011;62514;48.112;11.566;2024-01-10T10:37:51;87.97;;;36.67;;
355;SDS011;62514;48.112;11.566;2024-01-10T10:40:18;93.13;;;38.27;;
355;SDS011;62514;48.112;11.566;2024-01-10T10:42:46;92.00;;;37.63;;
355;SDS011;62514;48.112;11.566;2024-01-10T10:45:16;108.07;;;45.07;;
355;SDS011;62514;48.112;11.566;2024-01-10T10:47:44;105.37;;;39.17;;
355;SDS011;62514;48.112;11.566;2024-01-10T10:50:23;92.97;;;38.93;;
355;SDS011;62514;48.112;11.566;2024-01-10T10:52:53;98.40;;;39.83;;
355;SDS011;62514;48.112;11.566;2024-01-10T10:55:21;86.50;;;36.00;;
355;SDS011;62514;48.112;11.566;2024-01-10T10:57:49;91.43;;;39.33;;
355;SDS011;62514;48.112;11.566;2024-01-10T11:00:17;87.67;;;36.17;;
355;SDS011;62514;48.112;11.566;2024-01-10T11:02:45;81.50;;;34.23;;
355;SDS011;62514;48.112;11.566;2024-01-10T11:05:12;99.70;;;38.13;;
355;SDS011;62514;48.112;11.566;2024-01-10T11:07:38;125.93;;;45.13;;
355;SDS011;62514;48.112;11.566;2024-01-10T11:10:08;88.20;;;35.97;;
355;SDS011;62514;48.112;11.566;2024-01-10T11:23:43;90.87;;;38.10;;
355;SDS011;62514;48.112;11.566;2024-01-10T11:26:13;101.13;;;41.83;;
355;SDS011;62514;48.112;11.566;2024-01-10T11:28:40;101.30;;;40.60;;
355;SDS011;62514;48.112;11.566;2024-01-10T11:31:07;102.70;;;41.80;;
355;SDS011;62514;48.112;11.566;2024-01-10T11:33:34;95.80;;;38.87;;
355;SDS011;62514;48.112;11.566;2024-01-10T11:36:43;97.13;;;38.83;;
355;SDS011;62514;48.112;11.566;2024-01-10T11:39:03;107.63;;;42.00;;
355;SDS011;62514;48.112;11.566;2024-01-10T11:41:30;102.40;;;39.57;;
355;SDS011;62514;48.112;11.566;2024-01-10T11:46:46;98.57;;;38.17;;
355;SDS011;62514;48.112;11.566;2024-01-10T11:49:14;105.90;;;41.60;;
355;SDS011;62514;48.112;11.566;2024-01-10T11:51:44;100.53;;;40.60;;
355;SDS011;62514;48.112;11.566;2024-01-10T11:57:07;126.10;;;49.87;;
355;SDS011;62514;48.112;11.566;2024-01-10T11:59:34;99.43;;;37.97;;
355;SDS011;62514;48.112;11.566;2024-01-10T12:02:00;104.90;;;39.80;;
355;SDS011;62514;48.112;11.566;2024-01-10T12:04:29;108.67;;;40.97;;
355;SDS011;62514;48.112;11.566;2024-01-10T12:06:57;108.53;;;41.80;;
355;SDS011;62514;48.112;11.566;2024-01-10T12:09:23;106.50;;;40.87;;
355;SDS011;62514;48.112;11.566;2024-01-10T12:11:50;99.07;;;38.80;;
355;SDS011;62514;48.112;11.566;2024-01-10T12:14:16;122.80;;;42.77;;
355;SDS011;62514;48.112;11.566;2024-01-10T12:16:43;114.93;;;45.13;;
355;SDS011;62514;48.112;11.566;2024-01-10T12:19:08;140.00;;;54.40;;
355;SDS011;62514;48.112;11.566;2024-01-10T12:21:34;117.03;;;44.77;;
355;SDS011;62514;48.112;11.566;2024-01-10T12:24:02;105.27;;;41.03;;
355;SDS011;62514;48.112;11.566;2024-01-10T12:26:31;108.77;;;40.10;;
355;SDS011;62514;48.112;11.566;2024-01-10T12:28:58;107.77;;;43.57;;
355;SDS011;62514;48.112;11.566;2024-01-10T12:31:28;102.47;;;41.30;;
355;SDS011;62514;48.112;11.566;2024-01-10T12:33:55;102.20;;;41.20;;
355;SDS011;62514;48.112;11.566;2024-01-10T12:36:21;105.70;;;41.53;;
355;SDS011;62514;48.112;11.566;2024-01-10T12:38:47;101.37;;;39.40;;
355;SDS011;62514;48.112;11.566;2024-01-10T12:41:16;120.03;;;45.97;;
355;SDS011;62514;48.112;11.566;2024-01-10T12:43:43;100.93;;;40.80;;
355;SDS011;62514;48.112;11.566;2024-01-10T12:46:25;97.00;;;38.87;;
355;SDS011;62514;48.112;11.566;2024-01-10T12:49:02;109.97;;;45.77;;
355;SDS011;62514;48.112;11.566;2024-01-10T12:51:28;97.57;;;40.37;;
355;SDS011;62514;48.112;11.566;2024-01-10T12:53:55;92.57;;;37.00;;
355;SDS011;62514;48.112;11.566;2024-01-10T12:56:23;96.57;;;38.43;;
355;SDS011;62514;48.112;11.566;2024-01-10T12:58:50;99.00;;;39.93;;
355;SDS011;62514;48.112;11.566;2024-01-10T13:01:16;96.23;;;39.90;;
355;SDS011;62514;48.112;11.566;2024-01-10T13:03:42;89.43;;;35.67;;
355;SDS011;62514;48.112;11.566;2024-01-10T13:06:08;93.20;;;37.97;;
355;SDS011;62514;48.112;11.566;2024-01-10T13:08:35;91.77;;;38.80;;
355;SDS011;62514;48.112;11.566;2024-01-10T13:11:01;98.30;;;40.20;;
355;SDS011;62514;48.112;11.566;2024-01-10T13:13:33;92.83;;;38.47;;
355;SDS011;62514;48.112;11.566;2024-01-10T13:16:02;85.07;;;35.10;;
355;SDS011;62514;48.112;11.566;2024-01-10T13:18:28;83.83;;;34.63;;
355;SDS011;62514;48.112;11.566;2024-01-10T13:20:54;84.93;;;35.13;;
355;SDS011;62514;48.112;11.566;2024-01-10T13:23:21;94.33;;;40.00;;
355;SDS011;62514;48.112;11.566;2024-01-10T13:25:50;87.60;;;36.70;;
355;SDS011;62514;48.112;11.566;2024-01-10T13:28:18;85.30;;;35.70;;
355;SDS011;62514;48.112;11.566;2024-01-10T13:30:44;91.27;;;36.20;;
355;SDS011;62514;48.112;11.566;2024-01-10T13:33:10;101.93;;;41.37;;
355;SDS011;62514;48.112;11.566;2024-01-10T13:35:36;89.30;;;38.80;;
355;SDS011;62514;48.112;11.566;2024-01-10T13:38:03;81.60;;;33.93;;
355;SDS011;62514;48.112;11.566;2024-01-10T13:40:29;81.60;;;33.67;;
355;SDS011;62514;48.112;11.566;2024-01-10T13:42:57;81.13;;;33.10;;
355;SDS011;62514;48.112;11.566;2024-01-10T13:45:23;89.93;;;37.53;;
355;SDS011;62514;48.112;11.566;2024-01-10T13:47:49;87.03;;;36.47;;
355;SDS011;62514;48.112;11.566;2024-01-10T13:50:15;92.53;;;37.30;;
355;SDS011;62514;48.112;11.566;2024-01-10T13:52:41;86.20;;;35.83;;
355;SDS011;62514;48.112;11.566;2024-01-10T13:55:08;82.90;;;34.53;;
355;SDS011;62514;48.112;11.566;2024-01-10T13:57:35;90.70;;;36.17;;
355;SDS011;62514;48.112;11.566;2024-01-10T14:00:01;96.83;;;41.30;;
355;SDS011;62514;48.112;11.566;2024-01-10T14:02:28;83.60;;;35.83;;
355;SDS011;62514;48.112;11.566;2024-01-10T14:04:55;82.47;;;34.00;;
355;SDS011;62514;48.112;11.566;2024-01-10T14:07:23;95.60;;;39.17;;
355;SDS011;62514;48.112;11.566;2024-01-10T14:09:50;93.97;;;37.47;;
355;SDS011;62514;48.112;11.566;2024-01-10T14:12:16;81.33;;;34.93;;
355;SDS011;62514;48.112;11.566;2024-01-10T14:14:42;78.73;;;35.03;;
355;SDS011;62514;48.112;11.566;2024-01-10T14:17:09;79.00;;;33.73;;
355;SDS011;62514;48.112;11.566;2024-01-10T14:19:35;85.97;;;36.67;;
355;SDS011;62514;48.112;11.566;2024-01-10T14:22:01;73.77;;;31.70;;
355;SDS011;62514;48.112;11.566;2024-01-10T14:24:27;76.17;;;33.27;;
355;SDS011;62514;48.112;11.566;2024-01-10T14:26:53;80.40;;;35.17;;
355;SDS011;62514;48.112;11.566;2024-01-10T14:29:20;82.00;;;35.43;;
355;SDS011;62514;48.112;11.566;2024-01-10T14:31:47;78.30;;;32.73;;
355;SDS011;62514;48.112;11.566;2024-01-10T14:34:14;88.00;;;36.03;;
355;SDS011;62514;48.112;11.566;2024-01-10T14:36:41;76.50;;;32.93;;
355;SDS011;62514;48.112;11.566;2024-01-10T14:39:07;90.07;;;37.47;;
355;SDS011;62514;48.112;11.566;2024-01-10T14:41:33;78.70;;;32.67;;
355;SDS011;62514;48.112;11.566;2024-01-10T14:44:02;77.50;;;33.40;;
355;SDS011;62514;48.112;11.566;2024-01-10T14:46:29;85.37;;;37.20;;
355;SDS011;62514;48.112;11.566;2024-01-10T14:48:55;78.17;;;33.87;;